Terminal Aerodrome Forecast
Issued by NWS Charleston, WV

Current Version | Previous Version | Text Only | Print | Product List | Glossary Off
Versions: 1 2 3 4 5 6 7 8 9 10 11 12 13 14 15 16 17 18 19 20 21 22 23 24

381
FTUS41 KRLX 220156 AAA
TAFHTS
TAF AMD
KHTS 220156Z 2202/2224 32004KT P6SM BKN015 OVC025
     FM220500 33006KT 6SM BR SCT090
     FM220600 33004KT 5SM BR SCT120
     FM220800 33004KT 2SM BR SCT120
     FM221000 32004KT 5SM BR SCT120
     FM221200 33005KT P6SM BKN090=

USA.gov is the U.S. government's official web portal to all federal, state and local government web resources and services.